createdAt,value
2023-02-18T00:02:11.808Z,5.20
2023-02-18T00:04:41.807Z,5.25
2023-02-18T00:07:11.208Z,5.28
2023-02-18T00:09:41.291Z,5.27
2023-02-18T00:12:10.695Z,5.32
2023-02-18T00:14:42.643Z,5.31
2023-02-18T00:17:12.064Z,5.32
2023-02-18T00:19:41.723Z,5.29
2023-02-18T00:22:11.337Z,5.38
2023-02-18T00:24:41.343Z,5.33
2023-02-18T00:27:10.872Z,5.23
2023-02-18T00:29:45.756Z,5.19
2023-02-18T00:32:15.279Z,5.27
2023-02-18T00:34:44.719Z,5.19
2023-02-18T00:37:14.142Z,5.15
2023-02-18T00:39:44.244Z,5.14
2023-02-18T00:42:14.518Z,5.07
2023-02-18T00:44:46.806Z,5.07
2023-02-18T00:47:16.262Z,5.05
2023-02-18T00:49:45.639Z,5.04
2023-02-18T00:52:15.066Z,5.02
2023-02-18T00:54:44.450Z,5.01
2023-02-18T00:57:13.861Z,5.00
2023-02-18T00:59:45.945Z,5.00
2023-02-18T01:02:18.202Z,4.94
2023-02-18T01:04:47.710Z,4.93
2023-02-18T01:07:17.417Z,4.99
2023-02-18T01:09:46.845Z,4.99
2023-02-18T01:12:16.283Z,5.04
2023-02-18T01:14:48.303Z,5.04
2023-02-18T01:17:17.685Z,5.02
2023-02-18T01:19:47.106Z,4.97
2023-02-18T01:22:16.534Z,4.92
2023-02-18T01:24:46.556Z,4.86
2023-02-18T01:27:16.453Z,4.90
2023-02-18T01:29:48.426Z,4.89
2023-02-18T01:32:17.960Z,4.85
2023-02-18T01:34:47.479Z,4.83
2023-02-18T01:37:17.301Z,4.82
2023-02-18T01:39:46.722Z,4.74
2023-02-18T01:42:21.541Z,4.76
2023-02-18T01:44:53.642Z,4.70
2023-02-18T01:47:23.511Z,4.63
2023-02-18T01:49:55.450Z,4.62
2023-02-18T01:52:27.424Z,4.62
2023-02-18T01:54:59.378Z,4.64
2023-02-18T01:57:33.562Z,4.62
2023-02-18T02:00:12.194Z,4.63
2023-02-18T02:02:44.972Z,4.59
2023-02-18T02:05:14.559Z,4.62
2023-02-18T02:07:44.859Z,4.63
2023-02-18T02:10:16.950Z,4.60
2023-02-18T02:12:53.948Z,4.61
2023-02-18T02:15:36.989Z,4.64
2023-02-18T02:18:20.231Z,4.66
2023-02-18T02:21:36.931Z,4.59
2023-02-18T02:24:27.701Z,4.57
2023-02-18T02:27:19.326Z,4.54
2023-02-18T02:30:27.976Z,4.54
2023-02-18T02:33:23.138Z,4.51
2023-02-18T02:35:57.450Z,4.51
2023-02-18T02:38:34.044Z,4.48
2023-02-18T02:41:11.566Z,4.49
2023-02-18T02:43:46.698Z,4.52
2023-02-18T02:46:21.416Z,4.50
2023-02-18T02:48:54.238Z,4.51
2023-02-18T02:51:29.937Z,4.53
2023-02-18T02:54:12.317Z,4.56
2023-02-18T02:56:41.793Z,4.52
2023-02-18T02:59:14.458Z,4.52
2023-02-18T03:01:53.909Z,4.53
2023-02-18T03:04:34.968Z,4.50
2023-02-18T03:07:22.681Z,4.51
2023-02-18T03:10:05.423Z,4.53
2023-02-18T03:12:39.970Z,4.55
2023-02-18T03:15:15.452Z,4.58
2023-02-18T03:17:50.258Z,4.56
2023-02-18T03:20:25.263Z,4.61
2023-02-18T03:22:58.699Z,4.63
2023-02-18T03:25:28.335Z,4.66
2023-02-18T03:27:59.632Z,4.65
2023-02-18T03:30:31.142Z,4.66
2023-02-18T03:33:03.510Z,4.75
2023-02-18T03:35:33.896Z,4.76
2023-02-18T03:38:12.592Z,4.80
2023-02-18T03:40:42.013Z,4.85
2023-02-18T03:43:11.498Z,4.91
2023-02-18T03:45:40.947Z,4.95
2023-02-18T03:48:10.467Z,5.02
2023-02-18T03:50:39.936Z,5.04
2023-02-18T03:53:11.954Z,5.06
2023-02-18T03:55:42.662Z,5.09
2023-02-18T03:58:12.123Z,5.07
2023-02-18T04:00:41.527Z,5.10
2023-02-18T04:03:10.966Z,5.09
2023-02-18T04:05:40.391Z,5.05
2023-02-18T04:08:12.385Z,5.03
2023-02-18T04:10:41.778Z,5.00
2023-02-18T04:13:11.159Z,5.04
2023-02-18T04:15:40.606Z,5.02
2023-02-18T04:18:12.925Z,4.98
2023-02-18T04:20:42.406Z,4.91
2023-02-18T04:23:14.767Z,4.82
2023-02-18T04:25:44.312Z,4.79
2023-02-18T04:28:15.307Z,4.68
2023-02-18T04:30:45.003Z,4.68
2023-02-18T04:33:14.496Z,4.63
2023-02-18T04:35:43.983Z,4.61
2023-02-18T04:38:15.976Z,4.59
2023-02-18T04:40:45.640Z,4.56
2023-02-18T04:43:15.076Z,4.54
2023-02-18T04:45:44.693Z,4.49
2023-02-18T04:48:14.161Z,4.47
2023-02-18T04:50:43.746Z,4.49
2023-02-18T04:53:15.743Z,4.48
2023-02-18T04:55:45.163Z,4.48
2023-02-18T04:58:14.568Z,4.50
2023-02-18T05:00:44.004Z,4.48
2023-02-18T05:03:13.429Z,4.52
2023-02-18T05:05:42.853Z,4.50
2023-02-18T05:08:12.251Z,4.49
2023-02-18T05:10:44.501Z,4.44
2023-02-18T05:13:14.180Z,4.42
2023-02-18T05:15:43.608Z,4.35
2023-02-18T05:18:13.033Z,4.33
2023-02-18T05:20:42.462Z,4.30
2023-02-18T05:23:11.915Z,4.29
2023-02-18T05:25:43.922Z,4.31
2023-02-18T05:28:13.365Z,4.23
2023-02-18T05:30:42.850Z,4.25
2023-02-18T05:33:12.274Z,4.22
2023-02-18T05:35:41.714Z,4.18
2023-02-18T05:38:11.456Z,4.16
2023-02-18T05:40:40.986Z,4.13
2023-02-18T05:43:13.228Z,4.12
2023-02-18T05:45:42.921Z,4.08
2023-02-18T05:48:12.380Z,4.05
2023-02-18T05:50:41.852Z,4.05
2023-02-18T05:53:11.442Z,4.03
2023-02-18T05:55:40.871Z,4.00
2023-02-18T05:58:13.707Z,3.99
2023-02-18T06:00:43.183Z,4.04
2023-02-18T06:03:13.119Z,4.02
2023-02-18T06:05:42.688Z,4.03
2023-02-18T06:08:12.115Z,3.99
2023-02-18T06:10:43.255Z,4.00
2023-02-18T06:13:15.264Z,3.95
2023-02-18T06:15:44.701Z,3.92
2023-02-18T06:18:14.125Z,3.94
2023-02-18T06:20:46.661Z,3.89
2023-02-18T06:23:16.064Z,3.87
2023-02-18T06:25:45.573Z,3.86
2023-02-18T06:28:17.795Z,3.84
2023-02-18T06:30:50.116Z,3.80
2023-02-18T06:33:19.571Z,3.77
2023-02-18T06:35:56.017Z,3.76
2023-02-18T06:38:25.819Z,3.80
2023-02-18T06:40:55.322Z,3.77
2023-02-18T06:43:27.333Z,3.77
2023-02-18T06:45:56.783Z,3.76
2023-02-18T06:48:26.673Z,3.76
2023-02-18T06:50:56.341Z,3.71
2023-02-18T06:53:25.793Z,3.75
2023-02-18T06:55:55.251Z,3.81
2023-02-18T06:58:27.233Z,3.78
2023-02-18T07:00:56.650Z,3.77
2023-02-18T07:03:26.164Z,3.84
2023-02-18T07:05:55.897Z,3.92
2023-02-18T07:08:25.696Z,3.81
2023-02-18T07:10:55.077Z,3.80
2023-02-18T07:13:27.353Z,3.85
2023-02-18T07:15:56.813Z,3.81
2023-02-18T07:18:26.300Z,3.83
2023-02-18T07:20:55.790Z,3.82
2023-02-18T07:23:25.210Z,3.89
2023-02-18T07:25:54.886Z,3.92
2023-02-18T07:28:26.878Z,3.91
2023-02-18T07:30:56.335Z,3.88
2023-02-18T07:33:25.928Z,3.86
2023-02-18T07:35:57.087Z,3.86
2023-02-18T07:38:27.234Z,3.90
2023-02-18T07:40:57.490Z,3.88
2023-02-18T07:43:29.443Z,3.90
2023-02-18T07:45:58.978Z,3.90
2023-02-18T07:48:28.451Z,3.91
2023-02-18T07:50:58.121Z,3.98
2023-02-18T07:53:27.585Z,4.00
2023-02-18T07:55:57.012Z,4.08
2023-02-18T07:58:30.845Z,4.06
2023-02-18T08:01:00.869Z,4.08
2023-02-18T08:03:32.305Z,4.08
2023-02-18T08:06:01.741Z,4.12
2023-02-18T08:08:34.612Z,4.13
2023-02-18T08:11:18.589Z,4.14
2023-02-18T08:13:51.778Z,4.16
2023-02-18T08:16:22.336Z,4.15
2023-02-18T08:18:52.373Z,4.21
2023-02-18T08:21:22.734Z,4.16
2023-02-18T08:23:52.795Z,4.23
2023-02-18T08:26:23.013Z,4.23
2023-02-18T08:28:55.476Z,4.26
2023-02-18T08:31:27.470Z,4.26
2023-02-18T08:33:58.625Z,4.30
2023-02-18T08:36:28.221Z,4.22
2023-02-18T08:38:57.929Z,4.19
2023-02-18T08:41:27.488Z,4.22
2023-02-18T08:43:59.801Z,4.22
2023-02-18T08:46:34.993Z,4.22
2023-02-18T08:49:07.079Z,4.22
2023-02-18T08:51:37.153Z,4.21
2023-02-18T08:54:06.854Z,4.30
2023-02-18T08:56:36.334Z,4.19
2023-02-18T08:59:08.338Z,4.18
2023-02-18T09:01:38.061Z,4.23
2023-02-18T09:04:07.912Z,4.23
2023-02-18T09:06:40.298Z,4.22
2023-02-18T09:09:10.247Z,4.26
2023-02-18T09:11:39.703Z,4.28
2023-02-18T09:14:11.752Z,4.38
2023-02-18T09:16:42.003Z,4.41
2023-02-18T09:19:11.777Z,4.39
2023-02-18T09:21:41.201Z,4.30
2023-02-18T09:24:10.705Z,4.27
2023-02-18T09:26:41.424Z,4.19
2023-02-18T09:29:13.763Z,4.25
2023-02-18T09:31:43.232Z,4.35
2023-02-18T09:34:12.756Z,4.40
2023-02-18T09:36:42.267Z,4.42
2023-02-18T09:39:12.894Z,4.37
2023-02-18T09:41:45.050Z,4.35
2023-02-18T09:44:21.911Z,4.38
2023-02-18T09:46:53.723Z,4.47
2023-02-18T09:49:26.025Z,4.44
2023-02-18T09:51:56.220Z,4.46
2023-02-18T09:54:26.191Z,4.53
2023-02-18T09:56:56.619Z,4.57
2023-02-18T09:59:29.171Z,4.53
2023-02-18T10:01:59.160Z,4.59
2023-02-18T10:04:33.059Z,4.63
2023-02-18T10:07:03.722Z,4.51
2023-02-18T10:09:36.408Z,4.52
2023-02-18T10:12:14.795Z,4.58
2023-02-18T10:14:47.661Z,4.47
2023-02-18T10:17:18.134Z,4.53
2023-02-18T10:19:49.838Z,4.58
2023-02-18T10:22:20.278Z,4.63
2023-02-18T10:24:52.729Z,4.66
2023-02-18T10:27:27.578Z,4.66
2023-02-18T10:30:02.468Z,4.77
2023-02-18T10:32:36.777Z,4.76
2023-02-18T10:35:10.026Z,4.75
2023-02-18T10:37:59.025Z,4.81
2023-02-18T10:40:33.905Z,4.78
2023-02-18T10:43:10.150Z,4.86
2023-02-18T10:45:49.280Z,4.89
2023-02-18T10:48:41.264Z,4.99
2023-02-18T10:51:18.711Z,4.93
2023-02-18T10:53:48.801Z,4.93
2023-02-18T10:56:36.304Z,5.03
2023-02-18T10:59:13.820Z,5.01
2023-02-18T11:01:46.761Z,5.06
2023-02-18T11:04:19.525Z,5.09
2023-02-18T11:06:50.103Z,5.08
2023-02-18T11:09:29.870Z,4.99
2023-02-18T11:12:08.731Z,5.04
2023-02-18T11:14:46.229Z,5.18
2023-02-18T11:17:24.384Z,5.18
2023-02-18T11:19:57.061Z,5.13
2023-02-18T11:22:29.242Z,5.13
2023-02-18T11:24:59.931Z,5.16
2023-02-18T11:27:33.960Z,5.24
2023-02-18T11:30:05.516Z,5.23
2023-02-18T11:32:38.994Z,5.29
2023-02-18T11:35:08.899Z,5.23
2023-02-18T11:37:40.309Z,5.31
2023-02-18T11:40:10.889Z,5.35
2023-02-18T11:42:40.386Z,5.36
2023-02-18T11:45:28.088Z,5.42
2023-02-18T11:48:05.785Z,5.50
2023-02-18T11:50:36.325Z,5.58
2023-02-18T11:53:29.232Z,5.63
2023-02-18T11:56:00.516Z,5.63
2023-02-18T11:58:31.005Z,5.65
2023-02-18T12:01:02.058Z,5.66
2023-02-18T12:03:41.375Z,5.64
2023-02-18T12:06:19.654Z,5.76
2023-02-18T12:08:51.627Z,5.90
2023-02-18T12:11:29.489Z,6.10
2023-02-18T12:14:01.004Z,6.26
2023-02-18T12:16:36.718Z,6.39
2023-02-18T12:19:25.426Z,6.55
2023-02-18T12:22:01.988Z,6.68
2023-02-18T12:24:43.790Z,6.79
2023-02-18T12:27:20.823Z,6.91
2023-02-18T12:30:07.200Z,6.99
2023-02-18T12:32:44.349Z,7.02
2023-02-18T12:35:32.463Z,7.05
2023-02-18T12:38:33.708Z,7.05
2023-02-18T12:41:22.851Z,7.04
2023-02-18T12:44:01.518Z,7.04
2023-02-18T12:46:43.312Z,7.01
2023-02-18T12:49:35.436Z,7.01
2023-02-18T12:52:22.085Z,7.02
2023-02-18T12:55:10.717Z,7.03
2023-02-18T12:57:46.000Z,7.03
2023-02-18T13:00:43.515Z,7.03
2023-02-18T13:03:55.593Z,7.00
2023-02-18T13:06:34.757Z,7.00
2023-02-18T13:09:11.317Z,6.98
2023-02-18T13:11:47.386Z,6.98
2023-02-18T13:14:20.105Z,6.94
2023-02-18T13:16:54.169Z,6.91
2023-02-18T13:19:25.164Z,6.89
2023-02-18T13:21:56.775Z,6.84
2023-02-18T13:24:34.483Z,6.83
2023-02-18T13:27:16.661Z,6.79
2023-02-18T13:29:50.506Z,6.72
2023-02-18T13:32:25.324Z,6.60
2023-02-18T13:34:58.008Z,6.54
2023-02-18T13:37:35.069Z,6.41
2023-02-18T13:40:09.107Z,6.20
2023-02-18T13:42:40.353Z,6.02
2023-02-18T13:45:28.986Z,5.89
2023-02-18T13:47:59.840Z,5.92
2023-02-18T13:50:34.934Z,5.85
2023-02-18T13:53:22.924Z,5.76
2023-02-18T13:55:59.533Z,5.57
2023-02-18T13:58:33.384Z,5.65
2023-02-18T14:01:06.557Z,5.26
2023-02-18T14:03:40.272Z,5.18
2023-02-18T14:06:26.914Z,5.07
2023-02-18T14:09:30.245Z,4.94
2023-02-18T14:12:21.135Z,4.84
2023-02-18T14:14:50.798Z,4.75
2023-02-18T14:17:33.759Z,4.55
2023-02-18T14:20:44.627Z,4.48
2023-02-18T14:23:44.167Z,4.41
2023-02-18T14:26:22.026Z,4.37
2023-02-18T14:29:04.660Z,4.32
2023-02-18T14:31:55.805Z,4.24
2023-02-18T14:34:49.852Z,4.04
2023-02-18T14:37:33.375Z,4.07
2023-02-18T14:40:17.587Z,3.91
2023-02-18T14:42:52.282Z,3.86
2023-02-18T14:45:31.764Z,3.75
2023-02-18T14:48:23.661Z,3.70
2023-02-18T14:50:53.722Z,3.71
2023-02-18T14:53:25.459Z,3.75
2023-02-18T14:55:57.590Z,3.99
2023-02-18T14:58:32.628Z,4.04
2023-02-18T15:01:09.532Z,4.17
2023-02-18T15:03:43.048Z,4.52
2023-02-18T15:06:28.421Z,5.05
2023-02-18T15:08:58.296Z,5.22
2023-02-18T15:11:32.684Z,5.06
2023-02-18T15:14:02.128Z,4.88
2023-02-18T15:16:36.374Z,4.79
2023-02-18T15:19:08.613Z,4.67
2023-02-18T15:21:40.985Z,4.75
2023-02-18T15:24:14.450Z,4.67
2023-02-18T15:26:45.897Z,4.36
2023-02-18T15:29:21.655Z,4.22
2023-02-18T15:31:54.285Z,4.13
2023-02-18T15:34:40.950Z,4.13
2023-02-18T15:37:14.044Z,4.18
2023-02-18T15:39:44.846Z,4.13
2023-02-18T15:42:22.532Z,4.24
2023-02-18T15:44:54.354Z,4.24
2023-02-18T15:47:26.636Z,4.03
2023-02-18T15:49:57.631Z,3.95
2023-02-18T15:52:28.627Z,4.01
2023-02-18T15:54:58.383Z,3.85
2023-02-18T15:57:30.126Z,3.95
2023-02-18T16:00:06.448Z,4.07
2023-02-18T16:02:38.398Z,4.13
2023-02-18T16:05:16.616Z,4.00
2023-02-18T16:07:54.585Z,3.91
2023-02-18T16:10:25.712Z,3.86
2023-02-18T16:13:00.281Z,3.75
2023-02-18T16:15:32.265Z,3.74
2023-02-18T16:18:04.291Z,3.70
2023-02-18T16:20:36.141Z,3.71
2023-02-18T16:23:11.155Z,3.71
2023-02-18T16:25:45.636Z,3.73
2023-02-18T16:28:17.356Z,3.67
2023-02-18T16:30:48.058Z,3.62
2023-02-18T16:33:20.077Z,3.48
2023-02-18T16:35:50.874Z,3.48
2023-02-18T16:38:22.872Z,3.44
2023-02-18T16:40:52.634Z,3.44
2023-02-18T16:43:24.075Z,3.44
2023-02-18T16:45:55.352Z,3.33
2023-02-18T16:48:33.643Z,3.29
2023-02-18T16:51:05.795Z,3.31
2023-02-18T16:53:35.191Z,3.35
2023-02-18T16:56:04.608Z,3.41
2023-02-18T16:58:34.529Z,3.45
2023-02-18T17:01:03.927Z,3.45
2023-02-18T17:03:36.227Z,3.47
2023-02-18T17:06:05.735Z,3.52
2023-02-18T17:08:36.343Z,3.49
2023-02-18T17:11:05.930Z,3.50
2023-02-18T17:13:35.311Z,3.50
2023-02-18T17:16:04.944Z,3.53
2023-02-18T17:18:36.923Z,3.48
2023-02-18T17:21:06.932Z,3.46
2023-02-18T17:23:36.332Z,3.41
2023-02-18T17:26:05.822Z,3.43
2023-02-18T17:28:35.229Z,3.38
2023-02-18T17:31:04.743Z,3.35
2023-02-18T17:33:36.768Z,3.34
2023-02-18T17:36:06.503Z,3.32
2023-02-18T17:38:35.889Z,3.34
2023-02-18T17:41:05.362Z,3.28
2023-02-18T17:43:34.940Z,3.31
2023-02-18T17:46:04.646Z,3.26
2023-02-18T17:48:37.073Z,3.22
2023-02-18T17:51:07.645Z,3.23
2023-02-18T17:53:37.563Z,3.22
2023-02-18T17:56:07.949Z,3.22
2023-02-18T17:58:37.548Z,3.29
2023-02-18T18:01:07.329Z,3.32
2023-02-18T18:03:39.422Z,3.33
2023-02-18T18:06:10.125Z,3.22
2023-02-18T18:08:40.074Z,3.19
2023-02-18T18:11:09.693Z,3.22
2023-02-18T18:13:39.209Z,3.24
2023-02-18T18:16:09.106Z,3.18
2023-02-18T18:18:41.113Z,3.21
2023-02-18T18:21:18.088Z,3.19
2023-02-18T18:23:47.511Z,3.12
2023-02-18T18:26:16.975Z,3.16
2023-02-18T18:28:46.435Z,3.15
2023-02-18T18:31:18.822Z,3.09
2023-02-18T18:33:53.446Z,3.10
2023-02-18T18:36:24.340Z,3.02
2023-02-18T18:38:53.932Z,2.99
2023-02-18T18:41:25.038Z,2.92
2023-02-18T18:43:54.455Z,2.93
2023-02-18T18:46:23.874Z,2.87
2023-02-18T18:48:57.995Z,2.77
2023-02-18T18:51:31.020Z,2.76
2023-02-18T18:54:00.434Z,2.72
2023-02-18T18:56:29.954Z,2.70
2023-02-18T18:58:59.573Z,2.66
2023-02-18T19:01:29.959Z,2.64
2023-02-18T19:04:02.216Z,2.60
2023-02-18T19:06:31.674Z,2.58
2023-02-18T19:09:01.048Z,2.57
2023-02-18T19:11:30.633Z,2.51
2023-02-18T19:14:00.023Z,2.51
2023-02-18T19:16:34.066Z,2.51
2023-02-18T19:19:06.025Z,2.46
2023-02-18T19:21:35.428Z,2.45
2023-02-18T19:24:04.846Z,2.47
2023-02-18T19:26:34.286Z,2.40
2023-02-18T19:29:03.687Z,2.36
2023-02-18T19:31:33.254Z,2.33
2023-02-18T19:34:02.719Z,2.34
2023-02-18T19:36:34.738Z,2.28
2023-02-18T19:39:04.111Z,2.22
2023-02-18T19:41:33.568Z,2.23
2023-02-18T19:44:03.246Z,2.18
2023-02-18T19:46:32.733Z,2.15
2023-02-18T19:49:02.214Z,2.16
2023-02-18T19:53:45.375Z,1.95
2023-02-18T19:56:15.032Z,1.99
2023-02-18T19:58:44.465Z,1.95
2023-02-18T20:01:14.718Z,1.98
2023-02-18T20:03:44.205Z,1.92
2023-02-18T20:06:17.835Z,1.92
2023-02-18T20:08:49.813Z,1.85
2023-02-18T20:11:19.443Z,1.86
2023-02-18T20:13:50.205Z,1.83
2023-02-18T20:16:19.732Z,1.81
2023-02-18T20:18:49.228Z,1.71
2023-02-18T20:21:18.629Z,1.72
2023-02-18T20:23:50.649Z,1.79
2023-02-18T20:26:20.057Z,1.77
2023-02-18T20:28:50.056Z,1.68
2023-02-18T20:31:19.579Z,1.67
2023-02-18T20:33:49.045Z,1.61
2023-02-18T20:36:19.300Z,1.57
2023-02-18T20:38:52.256Z,1.51
2023-02-18T20:41:23.621Z,1.53
2023-02-18T20:43:53.044Z,1.51
2023-02-18T20:46:24.716Z,1.48
2023-02-18T20:48:54.145Z,1.51
2023-02-18T20:51:25.540Z,1.47
2023-02-18T20:53:57.537Z,1.50
2023-02-18T20:56:27.032Z,1.53
2023-02-18T20:58:56.537Z,1.42
2023-02-18T21:01:25.997Z,1.46
2023-02-18T21:03:55.513Z,1.40
2023-02-18T21:06:25.992Z,1.39
2023-02-18T21:08:57.948Z,1.37
2023-02-18T21:11:29.221Z,1.35
2023-02-18T21:13:59.547Z,1.37
2023-02-18T21:16:32.275Z,1.42
2023-02-18T21:19:01.829Z,1.48
2023-02-18T21:21:31.321Z,1.37
2023-02-18T21:24:03.324Z,1.36
2023-02-18T21:26:33.031Z,1.37
2023-02-18T21:29:05.479Z,1.42
2023-02-18T21:31:36.471Z,1.40
2023-02-18T21:34:06.466Z,1.39
2023-02-18T21:36:36.767Z,1.39
2023-02-18T21:39:10.417Z,1.42
2023-02-18T21:41:41.305Z,1.47
2023-02-18T21:44:10.942Z,1.49
2023-02-18T21:46:40.679Z,1.47
2023-02-18T21:49:10.187Z,1.55
2023-02-18T21:51:53.895Z,1.61
2023-02-18T21:54:27.333Z,1.66
2023-02-18T21:56:57.305Z,1.64
2023-02-18T21:59:28.841Z,1.78
2023-02-18T22:01:59.839Z,1.80
2023-02-18T22:04:29.881Z,1.79
2023-02-18T22:06:59.613Z,1.77
2023-02-18T22:09:32.093Z,1.81
2023-02-18T22:12:01.545Z,1.85
2023-02-18T22:14:31.177Z,1.80
2023-02-18T22:17:00.620Z,1.73
2023-02-18T22:19:30.070Z,1.66
2023-02-18T22:22:00.508Z,1.66
2023-02-18T22:24:32.854Z,1.64
2023-02-18T22:27:03.430Z,1.67
2023-02-18T22:29:35.448Z,1.77
2023-02-18T22:32:05.005Z,1.82
2023-02-18T22:34:34.463Z,1.93
2023-02-18T22:37:03.883Z,2.06
2023-02-18T22:39:35.908Z,1.95
2023-02-18T22:42:05.409Z,1.82
2023-02-18T22:44:34.762Z,1.79
2023-02-18T22:47:04.219Z,1.77
2023-02-18T22:49:33.874Z,1.83
2023-02-18T22:52:03.331Z,1.88
2023-02-18T22:54:35.331Z,1.84
2023-02-18T22:57:04.807Z,1.79
2023-02-18T22:59:34.370Z,1.72
2023-02-18T23:02:05.849Z,1.81
2023-02-18T23:04:35.251Z,1.81
2023-02-18T23:07:04.650Z,1.77
2023-02-18T23:09:36.767Z,1.77
2023-02-18T23:12:06.387Z,1.82
2023-02-18T23:14:35.803Z,1.86
2023-02-18T23:17:19.477Z,1.87
2023-02-18T23:19:49.871Z,1.87
2023-02-18T23:22:20.923Z,1.88
2023-02-18T23:24:52.899Z,1.92
2023-02-18T23:27:23.209Z,1.96
2023-02-18T23:29:52.888Z,1.93
2023-02-18T23:32:22.796Z,1.94
2023-02-18T23:34:52.540Z,1.96
2023-02-18T23:37:44.195Z,1.98
2023-02-18T23:40:20.000Z,2.01
2023-02-18T23:42:49.417Z,2.04
2023-02-18T23:45:18.976Z,2.04
2023-02-18T23:47:48.648Z,2.07
2023-02-18T23:50:18.925Z,2.13
2023-02-18T23:52:50.381Z,2.11
2023-02-18T23:55:22.398Z,2.12
2023-02-18T23:57:51.865Z,2.19
